Terminal Aerodrome Forecast
Issued by NWS

Home | Current Version | Previous Version | Text Only | Print | Product List | Glossary On
Versions: 1 2 3 4 5 6 7 8 9 10 11 12 13
000
FTUS42 TJSJ 241722
TAFISX
TAF
TISX 241722Z 2418/2518 12012KT P6SM VCSH SCT022 SCT040
     FM242300 09005KT P6SM FEW020 SCT050
     FM250600 05003KT P6SM VCSH SCT025
     FM251400 11011KT P6SM FEW030 SCT050=

USA.gov is the U.S. government's official web portal to all federal, state and local government web resources and services.